Terminal Aerodrome Forecast
Issued by NWS Charleston, WV

Current Version | Previous Version | Graphics & Text | Print | Product List | Glossary On
Versions: 1 2 3 4 5 6 7 8 9 10 11 12 13 14 15 16 17 18 19 20 21 22 23 24
000
FTUS41 KRLX 200301 AAA
TAFBKW
TAF AMD
KBKW 200301Z 2003/2024 29014G24KT P6SM BKN029 OVC035
     FM200600 29010G17KT P6SM BKN035
     FM200800 29009G16KT P6SM SCT040
     FM201100 28005KT P6SM SKC=

USA.gov is the U.S. government's official web portal to all federal, state and local government web resources and services.